createdAt,value
2018-06-11T00:01:25.607Z,11.57
2018-06-11T00:03:54.419Z,12.17
2018-06-11T00:06:23.016Z,12.70
2018-06-11T00:08:52.842Z,11.60
2018-06-11T00:11:22.453Z,12.50
2018-06-11T00:13:51.015Z,12.03
2018-06-11T00:16:19.780Z,11.87
2018-06-11T00:18:49.890Z,11.80
2018-06-11T00:21:21.412Z,11.77
2018-06-11T00:23:50.024Z,12.23
2018-06-11T00:26:18.588Z,11.97
2018-06-11T00:28:47.167Z,12.73
2018-06-11T00:31:15.762Z,11.93
2018-06-11T00:33:44.752Z,13.27
2018-06-11T00:36:13.770Z,12.87
2018-06-11T00:38:42.402Z,12.07
2018-06-11T00:41:11.572Z,13.30
2018-06-11T00:43:40.166Z,13.10
2018-06-11T00:46:08.738Z,10.87
2018-06-11T00:48:37.250Z,12.77
2018-06-11T00:51:05.848Z,12.13
2018-06-11T00:53:34.688Z,13.47
2018-06-11T00:56:07.501Z,12.67
2018-06-11T00:58:36.138Z,13.37
2018-06-11T01:01:05.183Z,12.83
2018-06-11T01:03:33.823Z,12.63
2018-06-11T01:06:03.053Z,13.70
2018-06-11T01:08:32.613Z,15.13
2018-06-11T01:11:01.512Z,13.73
2018-06-11T01:13:30.063Z,14.60
2018-06-11T01:15:58.676Z,13.90
2018-06-11T01:18:27.247Z,13.53
2018-06-11T01:20:55.836Z,14.27
2018-06-11T01:23:24.435Z,13.83
2018-06-11T01:25:52.961Z,13.50
2018-06-11T01:28:21.461Z,14.73
2018-06-11T01:30:50.144Z,15.60
2018-06-11T01:33:18.703Z,16.00
2018-06-11T01:35:47.582Z,15.17
2018-06-11T01:38:16.121Z,15.27
2018-06-11T01:40:45.015Z,14.20
2018-06-11T01:43:14.484Z,13.97
2018-06-11T01:45:43.819Z,14.30
2018-06-11T01:48:12.371Z,15.53
2018-06-11T01:50:41.260Z,14.80
2018-06-11T01:53:09.896Z,14.53
2018-06-11T01:55:38.545Z,14.70
2018-06-11T01:58:07.128Z,13.87
2018-06-11T02:00:37.095Z,13.63
2018-06-11T02:03:05.698Z,15.60
2018-06-11T02:05:34.318Z,14.93
2018-06-11T02:08:02.847Z,16.27
2018-06-11T02:10:31.447Z,16.37
2018-06-11T02:13:00.024Z,16.47
2018-06-11T02:15:28.709Z,18.17
2018-06-11T02:17:58.371Z,18.67
2018-06-11T02:20:27.819Z,18.97
2018-06-11T02:22:56.322Z,17.23
2018-06-11T02:25:24.923Z,17.03
2018-06-11T02:27:54.167Z,17.57
2018-06-11T02:30:23.437Z,16.77
2018-06-11T02:32:52.016Z,17.20
2018-06-11T02:35:20.570Z,16.87
2018-06-11T02:37:49.090Z,18.50
2018-06-11T02:40:17.667Z,18.20
2018-06-11T02:42:46.185Z,18.60
2018-06-11T02:45:14.747Z,16.40
2018-06-11T02:47:43.357Z,16.37
2018-06-11T02:50:11.952Z,17.23
2018-06-11T02:52:41.945Z,18.30
2018-06-11T02:55:12.551Z,17.63
2018-06-11T02:57:41.054Z,18.40
2018-06-11T03:00:09.622Z,18.43
2018-06-11T03:02:38.216Z,19.23
2018-06-11T03:05:07.706Z,18.50
2018-06-11T03:07:36.282Z,18.07
2018-06-11T03:10:04.942Z,17.13
2018-06-11T03:12:33.524Z,17.33
2018-06-11T03:15:02.707Z,16.50
2018-06-11T03:17:31.301Z,19.13
2018-06-11T03:20:00.378Z,18.53
2018-06-11T03:22:28.954Z,18.03
2018-06-11T03:24:58.126Z,17.60
2018-06-11T03:27:27.572Z,16.40
2018-06-11T03:29:57.151Z,18.53
2018-06-11T03:32:25.677Z,19.03
2018-06-11T03:34:54.242Z,19.83
2018-06-11T03:37:22.753Z,19.23
2018-06-11T03:39:51.321Z,19.30
2018-06-11T03:42:21.154Z,18.07
2018-06-11T03:44:49.743Z,17.63
2018-06-11T03:47:18.345Z,17.10
2018-06-11T03:49:47.631Z,17.77
2018-06-11T03:52:16.254Z,17.90
2018-06-11T03:54:44.870Z,16.70
2018-06-11T03:57:13.413Z,17.33
2018-06-11T03:59:42.222Z,17.70
2018-06-11T04:02:10.745Z,18.43
2018-06-11T04:04:39.562Z,20.47
2018-06-11T04:07:08.082Z,20.07
2018-06-11T04:09:36.665Z,19.80
2018-06-11T04:12:05.866Z,19.57
2018-06-11T04:14:42.675Z,19.47
2018-06-11T04:17:11.288Z,18.60
2018-06-11T04:19:40.754Z,19.43
2018-06-11T04:22:09.270Z,19.27
2018-06-11T04:24:38.091Z,19.87
2018-06-11T04:27:06.629Z,20.27
2018-06-11T04:29:35.143Z,20.00
2018-06-11T04:32:04.998Z,18.20
2018-06-11T04:34:33.911Z,18.93
2018-06-11T04:37:03.578Z,18.47
2018-06-11T04:39:33.707Z,19.20
2018-06-11T04:42:02.260Z,18.03
2018-06-11T04:44:30.829Z,18.17
2018-06-11T04:46:59.373Z,16.77
2018-06-11T04:49:28.218Z,17.70
2018-06-11T04:52:00.232Z,18.57
2018-06-11T04:54:28.832Z,17.33
2018-06-11T04:56:57.387Z,17.63
2018-06-11T04:59:25.973Z,17.20
2018-06-11T05:01:54.566Z,17.00
2018-06-11T05:04:23.451Z,16.57
2018-06-11T05:06:53.484Z,15.87
2018-06-11T05:09:22.106Z,15.50
2018-06-11T05:11:50.684Z,15.53
2018-06-11T05:14:21.159Z,15.37
2018-06-11T05:16:50.663Z,15.30
2018-06-11T05:19:21.110Z,14.93
2018-06-11T05:21:49.619Z,14.90
2018-06-11T05:24:18.455Z,14.80
2018-06-11T05:26:47.919Z,16.10
2018-06-11T05:29:16.515Z,16.03
2018-06-11T05:31:45.046Z,16.07
2018-06-11T05:34:13.561Z,15.60
2018-06-11T05:36:43.064Z,14.87
2018-06-11T05:39:11.645Z,13.77
2018-06-11T05:41:41.307Z,15.77
2018-06-11T05:44:10.908Z,14.33
2018-06-11T05:46:39.762Z,13.47
2018-06-11T05:49:08.966Z,13.90
2018-06-11T05:51:38.542Z,11.80
2018-06-11T05:54:07.232Z,12.63
2018-06-11T05:56:36.129Z,12.17
2018-06-11T05:59:04.714Z,12.73
2018-06-11T06:01:33.289Z,11.90
2018-06-11T06:04:01.992Z,12.10
2018-06-11T06:06:30.848Z,11.30
2018-06-11T06:08:59.817Z,11.10
2018-06-11T06:11:28.411Z,11.03
2018-06-11T06:13:57.034Z,10.40
2018-06-11T06:16:25.602Z,10.43
2018-06-11T06:18:55.015Z,9.93
2018-06-11T06:21:23.661Z,10.97
2018-06-11T06:23:52.299Z,11.20
2018-06-11T06:26:21.908Z,11.43
2018-06-11T06:28:50.516Z,10.43
2018-06-11T06:31:19.191Z,11.00
2018-06-11T06:33:48.113Z,9.13
2018-06-11T06:36:17.167Z,11.40
2018-06-11T06:38:46.323Z,10.60
2018-06-11T06:41:14.912Z,10.67
2018-06-11T06:43:43.475Z,10.10
2018-06-11T06:46:12.064Z,10.50
2018-06-11T06:48:41.027Z,10.77
2018-06-11T06:51:09.628Z,10.70
2018-06-11T06:53:38.917Z,10.67
2018-06-11T06:56:07.717Z,10.13
2018-06-11T06:58:36.225Z,9.20
2018-06-11T07:01:04.831Z,9.97
2018-06-11T07:03:33.563Z,9.90
2018-06-11T07:06:02.106Z,12.47
2018-06-11T07:08:30.671Z,10.70
2018-06-11T07:10:59.262Z,9.87
2018-06-11T07:13:27.770Z,10.17
2018-06-11T07:15:56.281Z,10.00
2018-06-11T07:18:24.822Z,9.57
2018-06-11T07:20:53.317Z,9.77
2018-06-11T07:23:21.926Z,9.77
2018-06-11T07:25:50.518Z,10.93
2018-06-11T07:28:19.069Z,10.40
2018-06-11T07:30:47.592Z,9.17
2018-06-11T07:33:18.359Z,9.67
2018-06-11T07:35:46.918Z,9.53
2018-06-11T07:38:15.492Z,9.67
2018-06-11T07:40:44.071Z,8.77
2018-06-11T07:43:12.703Z,10.17
2018-06-11T07:45:41.178Z,9.47
2018-06-11T07:48:09.977Z,9.30
2018-06-11T07:50:39.345Z,9.13
2018-06-11T07:53:08.046Z,9.77
2018-06-11T07:55:36.901Z,9.03
2018-06-11T07:58:05.561Z,9.33
2018-06-11T08:00:34.173Z,8.90
2018-06-11T08:03:02.765Z,8.30
2018-06-11T08:05:31.651Z,9.27
2018-06-11T08:08:00.239Z,8.70
2018-06-11T08:10:28.905Z,9.13
2018-06-11T08:12:57.445Z,8.70
2018-06-11T08:15:26.844Z,8.77
2018-06-11T08:17:55.430Z,8.77
2018-06-11T08:20:24.955Z,9.33
2018-06-11T08:22:53.547Z,8.80
2018-06-11T08:25:22.217Z,8.77
2018-06-11T08:27:50.739Z,8.70
2018-06-11T08:30:19.295Z,8.93
2018-06-11T08:32:47.914Z,8.90
2018-06-11T08:35:16.476Z,9.70
2018-06-11T08:37:45.059Z,9.10
2018-06-11T08:40:13.611Z,8.43
2018-06-11T08:42:42.434Z,8.60
2018-06-11T08:45:11.012Z,8.50
2018-06-11T08:47:39.589Z,10.20
2018-06-11T08:50:07.894Z,9.10
2018-06-11T08:52:36.824Z,8.27
2018-06-11T08:55:05.389Z,8.87
2018-06-11T08:57:33.950Z,9.13
2018-06-11T09:00:02.734Z,9.30
2018-06-11T09:02:31.265Z,9.50
2018-06-11T09:05:00.198Z,9.20
2018-06-11T09:07:28.780Z,9.07
2018-06-11T09:09:57.961Z,9.50
2018-06-11T09:12:26.593Z,8.90
2018-06-11T09:14:55.126Z,9.93
2018-06-11T09:17:23.764Z,9.33
2018-06-11T09:19:53.266Z,8.47
2018-06-11T09:22:21.814Z,8.90
2018-06-11T09:24:50.412Z,8.80
2018-06-11T09:27:18.945Z,10.07
2018-06-11T09:29:47.492Z,10.67
2018-06-11T09:32:16.078Z,10.30
2018-06-11T09:34:45.295Z,10.00
2018-06-11T09:37:14.246Z,9.77
2018-06-11T09:39:42.832Z,9.30
2018-06-11T09:42:11.541Z,9.37
2018-06-11T09:44:40.112Z,10.50
2018-06-11T09:47:08.719Z,10.37
2018-06-11T09:49:37.482Z,9.20
2018-06-11T09:52:06.037Z,9.80
2018-06-11T09:54:34.544Z,8.97
2018-06-11T09:57:03.042Z,9.60
2018-06-11T09:59:31.576Z,9.07
2018-06-11T10:02:00.867Z,9.40
2018-06-11T10:04:30.345Z,9.30
2018-06-11T10:06:58.886Z,10.10
2018-06-11T10:09:29.267Z,9.40
2018-06-11T10:11:57.762Z,9.80
2018-06-11T10:14:26.838Z,8.33
2018-06-11T10:16:55.350Z,10.10
2018-06-11T10:19:24.012Z,9.27
2018-06-11T10:21:52.829Z,10.03
2018-06-11T10:24:21.325Z,9.50
2018-06-11T10:26:49.870Z,9.40
2018-06-11T10:29:19.532Z,9.63
2018-06-11T10:31:48.045Z,9.40
2018-06-11T10:34:17.595Z,9.23
2018-06-11T10:36:46.178Z,8.57
2018-06-11T10:39:15.254Z,9.80
2018-06-11T10:41:44.094Z,9.30
2018-06-11T10:44:12.609Z,8.43
2018-06-11T10:46:41.170Z,9.97
2018-06-11T10:49:09.733Z,8.77
2018-06-11T10:51:38.297Z,8.80
2018-06-11T10:54:07.259Z,8.57
2018-06-11T10:56:36.152Z,9.40
2018-06-11T10:59:04.784Z,9.10
2018-06-11T11:01:34.531Z,9.20
2018-06-11T11:04:03.121Z,8.90
2018-06-11T11:06:31.668Z,9.40
2018-06-11T11:09:00.227Z,8.90
2018-06-11T11:11:28.810Z,8.80
2018-06-11T11:13:57.346Z,10.17
2018-06-11T11:16:25.914Z,9.23
2018-06-11T11:18:54.525Z,9.30
2018-06-11T11:21:23.057Z,7.93
2018-06-11T11:23:51.795Z,9.30
2018-06-11T11:26:20.304Z,8.70
2018-06-11T11:28:48.802Z,7.90
2018-06-11T11:31:17.390Z,8.77
2018-06-11T11:33:46.177Z,8.23
2018-06-11T11:36:14.722Z,8.10
2018-06-11T11:38:43.246Z,8.00
2018-06-11T11:41:11.762Z,8.27
2018-06-11T11:43:40.273Z,7.43
2018-06-11T11:46:08.798Z,8.57
2018-06-11T11:48:37.289Z,8.20
2018-06-11T11:51:05.837Z,8.33
2018-06-11T11:53:35.130Z,8.20
2018-06-11T11:56:03.634Z,7.73
2018-06-11T11:58:32.123Z,9.40
2018-06-11T12:01:00.658Z,9.40
2018-06-11T12:03:30.067Z,8.57
2018-06-11T12:05:58.569Z,9.60
2018-06-11T12:08:27.767Z,10.40
2018-06-11T12:10:56.265Z,9.77
2018-06-11T12:13:27.793Z,11.77
2018-06-11T12:15:56.306Z,10.97
2018-06-11T12:18:25.130Z,11.60
2018-06-11T12:20:53.994Z,11.23
2018-06-11T12:23:22.514Z,11.93
2018-06-11T12:25:51.023Z,11.90
2018-06-11T12:28:20.267Z,11.43
2018-06-11T12:30:48.761Z,10.63
2018-06-11T12:33:17.274Z,10.37
2018-06-11T12:35:45.835Z,10.43
2018-06-11T12:38:14.352Z,10.57
2018-06-11T12:40:42.853Z,11.40
2018-06-11T12:43:12.170Z,11.07
2018-06-11T12:45:40.665Z,10.50
2018-06-11T12:48:09.155Z,12.23
2018-06-11T12:50:38.309Z,11.17
2018-06-11T12:53:06.829Z,11.50
2018-06-11T12:55:36.202Z,12.33
2018-06-11T12:58:04.766Z,12.47
2018-06-11T13:00:34.302Z,11.73
2018-06-11T13:03:02.802Z,11.90
2018-06-11T13:05:32.065Z,11.57
2018-06-11T13:08:01.366Z,12.47
2018-06-11T13:10:29.874Z,12.30
2018-06-11T13:13:00.453Z,12.93
2018-06-11T13:15:28.958Z,12.70
2018-06-11T13:17:57.481Z,12.73
2018-06-11T13:20:26.033Z,12.23
2018-06-11T13:22:54.533Z,13.87
2018-06-11T13:25:22.734Z,13.10
2018-06-11T13:27:52.723Z,12.97
2018-06-11T13:30:21.959Z,13.10
2018-06-11T13:32:51.305Z,13.73
2018-06-11T13:35:22.033Z,13.50
2018-06-11T13:37:50.542Z,13.00
2018-06-11T13:40:19.073Z,14.17
2018-06-11T13:42:47.585Z,14.50
2018-06-11T13:45:16.100Z,13.43
2018-06-11T13:47:45.552Z,14.30
2018-06-11T13:50:14.144Z,14.70
2018-06-11T13:52:42.642Z,14.50
2018-06-11T13:55:11.167Z,13.90
2018-06-11T13:57:39.698Z,13.50
2018-06-11T14:00:08.353Z,13.97
2018-06-11T14:02:39.777Z,14.93
2018-06-11T14:05:07.936Z,14.50
2018-06-11T14:07:37.305Z,14.97
2018-06-11T14:10:05.858Z,14.63
2018-06-11T14:12:34.380Z,15.83
2018-06-11T14:15:02.903Z,15.30
2018-06-11T14:17:31.745Z,16.27
2018-06-11T14:20:00.497Z,16.23
2018-06-11T14:22:29.004Z,16.67
2018-06-11T14:24:57.538Z,17.13
2018-06-11T14:27:26.110Z,17.03
2018-06-11T14:29:54.621Z,17.50
2018-06-11T14:32:23.153Z,18.03
2018-06-11T14:34:51.737Z,17.77
2018-06-11T14:37:20.250Z,19.40
2018-06-11T14:39:48.805Z,18.87
2018-06-11T14:42:17.433Z,19.80
2018-06-11T14:44:45.968Z,20.20
2018-06-11T14:47:14.469Z,21.43
2018-06-11T14:49:42.983Z,20.40
2018-06-11T14:52:11.954Z,22.00
2018-06-11T14:54:41.862Z,23.10
2018-06-11T14:57:10.369Z,22.40
2018-06-11T14:59:38.998Z,22.17
2018-06-11T15:02:07.584Z,24.10
2018-06-11T15:04:36.097Z,28.90
2018-06-11T15:07:04.910Z,25.10
2018-06-11T15:09:33.505Z,28.07
2018-06-11T15:12:02.021Z,25.17
2018-06-11T15:14:30.542Z,24.20
2018-06-11T15:16:59.049Z,32.23
2018-06-11T15:19:27.561Z,29.93
2018-06-11T15:21:56.086Z,31.77
2018-06-11T15:24:24.604Z,29.33
2018-06-11T15:26:53.126Z,28.67
2018-06-11T15:29:22.050Z,35.13
2018-06-11T15:31:51.572Z,38.73
2018-06-11T15:34:20.053Z,41.50
2018-06-11T15:36:48.979Z,41.37
2018-06-11T15:39:17.493Z,35.70
2018-06-11T15:41:45.996Z,31.80
2018-06-11T15:44:15.289Z,33.67
2018-06-11T15:46:43.825Z,35.13
2018-06-11T15:49:12.319Z,37.37
2018-06-11T15:51:40.854Z,39.37
2018-06-11T15:54:09.850Z,34.53
2018-06-11T15:56:39.226Z,38.97
2018-06-11T15:59:07.817Z,42.67
2018-06-11T16:01:39.051Z,48.50
2018-06-11T16:04:08.551Z,38.77
2018-06-11T16:06:37.052Z,34.20
2018-06-11T16:09:07.633Z,39.60
2018-06-11T16:11:36.230Z,42.03
2018-06-11T16:14:04.790Z,39.57
2018-06-11T16:16:33.282Z,44.20
2018-06-11T16:19:01.810Z,37.97
2018-06-11T16:21:30.358Z,29.77
2018-06-11T16:23:58.931Z,29.50
2018-06-11T16:26:27.447Z,32.47
2018-06-11T16:28:55.960Z,27.33
2018-06-11T16:31:24.514Z,34.87
2018-06-11T16:33:53.086Z,35.37
2018-06-11T16:36:21.593Z,39.57
2018-06-11T16:38:50.129Z,38.37
2018-06-11T16:41:19.533Z,40.13
2018-06-11T16:43:48.053Z,40.03
2018-06-11T16:46:16.674Z,41.77
2018-06-11T16:48:45.320Z,43.83
2018-06-11T16:51:13.873Z,42.87
2018-06-11T16:53:42.478Z,44.47
2018-06-11T16:56:10.993Z,43.77
2018-06-11T16:58:40.550Z,47.50
2018-06-11T17:01:09.105Z,47.80
2018-06-11T17:03:38.692Z,36.87
2018-06-11T17:06:07.970Z,37.67
2018-06-11T17:08:37.972Z,38.60
2018-06-11T17:11:06.591Z,37.80
2018-06-11T17:13:35.253Z,37.27
2018-06-11T17:16:03.910Z,35.97
2018-06-11T17:18:33.554Z,38.13
2018-06-11T17:21:02.154Z,41.00
2018-06-11T17:23:30.802Z,41.73
2018-06-11T17:25:59.599Z,43.43
2018-06-11T17:28:28.158Z,39.23
2018-06-11T17:30:56.689Z,40.60
2018-06-11T17:33:25.506Z,41.27
2018-06-11T17:35:54.133Z,44.17
2018-06-11T17:38:22.650Z,45.47
2018-06-11T17:40:51.167Z,46.57
2018-06-11T17:43:20.003Z,46.23
2018-06-11T17:45:49.798Z,44.37
2018-06-11T17:48:18.434Z,47.30
2018-06-11T17:50:46.970Z,46.30
2018-06-11T17:53:15.560Z,45.03
2018-06-11T17:55:44.061Z,39.87
2018-06-11T17:58:12.689Z,42.93
2018-06-11T18:00:41.200Z,46.27
2018-06-11T18:03:09.706Z,35.23
2018-06-11T18:05:38.241Z,44.67
2018-06-11T18:08:06.766Z,39.87
2018-06-11T18:10:35.290Z,39.83
2018-06-11T18:13:03.854Z,38.57
2018-06-11T18:15:32.629Z,41.13
2018-06-11T18:18:01.161Z,42.20
2018-06-11T18:20:29.703Z,42.17
2018-06-11T18:22:58.572Z,40.70
2018-06-11T18:25:27.125Z,40.50
2018-06-11T18:27:56.065Z,40.40
2018-06-11T18:30:24.628Z,39.33
2018-06-11T18:32:54.443Z,44.10
2018-06-11T18:35:23.045Z,40.27
2018-06-11T18:37:52.077Z,44.30
2018-06-11T18:40:20.700Z,44.97
2018-06-11T18:42:49.481Z,41.70
2018-06-11T18:45:18.380Z,42.53
2018-06-11T18:47:48.980Z,46.47
2018-06-11T18:50:17.627Z,49.20
2018-06-11T18:52:46.225Z,40.63
2018-06-11T18:55:15.705Z,34.40
2018-06-11T18:57:46.972Z,38.93
2018-06-11T19:00:16.680Z,37.23
2018-06-11T19:02:45.344Z,38.30
2018-06-11T19:05:14.932Z,38.90
2018-06-11T19:07:44.208Z,38.83
2018-06-11T19:10:13.389Z,39.30
2018-06-11T19:12:42.625Z,38.67
2018-06-11T19:15:12.341Z,40.53
2018-06-11T19:17:40.979Z,38.27
2018-06-11T19:20:09.892Z,37.17
2018-06-11T19:22:39.540Z,31.80
2018-06-11T19:25:09.080Z,28.57
2018-06-11T19:27:37.937Z,28.80
2018-06-11T19:30:07.129Z,33.53
2018-06-11T19:32:35.787Z,23.97
2018-06-11T19:35:05.893Z,22.87
2018-06-11T19:37:34.920Z,23.90
2018-06-11T19:40:04.697Z,20.80
2018-06-11T19:42:34.432Z,22.53
2018-06-11T19:45:03.149Z,21.93
2018-06-11T19:47:32.242Z,20.87
2018-06-11T19:50:02.228Z,19.63
2018-06-11T19:52:31.248Z,21.20
2018-06-11T19:54:59.827Z,19.43
2018-06-11T19:57:29.444Z,19.30
2018-06-11T19:59:59.015Z,23.07
2018-06-11T20:02:27.616Z,21.60
2018-06-11T20:04:56.209Z,22.67
2018-06-11T20:07:24.942Z,26.37
2018-06-11T20:09:54.639Z,32.70
2018-06-11T20:12:24.355Z,29.27
2018-06-11T20:14:53.217Z,30.80
2018-06-11T20:17:21.926Z,36.37
2018-06-11T20:19:50.803Z,36.80
2018-06-11T20:22:19.649Z,33.13
2018-06-11T20:24:48.305Z,29.30
2018-06-11T20:27:17.129Z,21.03
2018-06-11T20:29:46.353Z,21.10
2018-06-11T20:32:15.823Z,21.23
2018-06-11T20:34:44.412Z,19.10
2018-06-11T20:37:14.210Z,19.13
2018-06-11T20:39:43.824Z,18.00
2018-06-11T20:42:12.375Z,19.40
2018-06-11T20:44:41.137Z,18.83
2018-06-11T20:47:09.690Z,17.83
2018-06-11T20:49:38.607Z,19.37
2018-06-11T20:52:07.189Z,18.47
2018-06-11T20:54:35.782Z,20.03
2018-06-11T20:57:04.582Z,18.53
2018-06-11T20:59:33.373Z,18.90
2018-06-11T21:02:02.066Z,18.50
2018-06-11T21:04:30.858Z,15.10
2018-06-11T21:06:59.499Z,16.70
2018-06-11T21:09:28.030Z,16.90
2018-06-11T21:11:56.529Z,20.07
2018-06-11T21:14:25.060Z,17.60
2018-06-11T21:16:53.639Z,17.40
2018-06-11T21:19:22.517Z,17.83
2018-06-11T21:21:51.070Z,19.67
2018-06-11T21:24:20.597Z,19.33
2018-06-11T21:26:49.102Z,18.90
2018-06-11T21:29:19.374Z,17.77
2018-06-11T21:31:48.176Z,20.63
2018-06-11T21:34:16.685Z,23.47
2018-06-11T21:36:45.455Z,22.03
2018-06-11T21:39:13.981Z,21.83
2018-06-11T21:41:42.497Z,22.77
2018-06-11T21:44:11.000Z,24.33
2018-06-11T21:46:39.550Z,24.17
2018-06-11T21:49:08.148Z,25.13
2018-06-11T21:51:36.853Z,24.40
2018-06-11T21:54:05.597Z,23.30
2018-06-11T21:56:34.565Z,24.93
2018-06-11T21:59:03.791Z,23.57
2018-06-11T22:01:32.329Z,20.40
2018-06-11T22:04:01.974Z,23.90
2018-06-11T22:06:30.349Z,23.60
2018-06-11T22:08:58.869Z,24.50
2018-06-11T22:11:27.382Z,21.17
2018-06-11T22:13:55.890Z,20.97
2018-06-11T22:16:24.420Z,20.73
2018-06-11T22:18:53.957Z,23.73
2018-06-11T22:21:22.121Z,22.77
2018-06-11T22:23:50.662Z,22.77
2018-06-11T22:26:20.174Z,19.87
2018-06-11T22:28:48.685Z,22.87
2018-06-11T22:31:17.228Z,21.70
2018-06-11T22:33:45.819Z,19.47
2018-06-11T22:36:23.830Z,20.53
2018-06-11T22:38:52.373Z,17.63
2018-06-11T22:41:20.864Z,20.07
2018-06-11T22:43:51.418Z,19.43
2018-06-11T22:46:19.938Z,22.37
2018-06-11T22:48:48.460Z,23.20
2018-06-11T22:51:17.048Z,23.80
2018-06-11T22:53:45.546Z,22.33
2018-06-11T22:56:14.046Z,23.60
2018-06-11T22:58:43.333Z,26.27
2018-06-11T23:01:11.848Z,25.17
2018-06-11T23:03:41.426Z,28.40
2018-06-11T23:06:10.827Z,25.07
2018-06-11T23:08:40.245Z,21.80
2018-06-11T23:11:09.635Z,23.33
2018-06-11T23:13:38.188Z,20.30
2018-06-11T23:16:06.727Z,20.93
2018-06-11T23:18:35.235Z,21.70
2018-06-11T23:21:03.814Z,22.83
2018-06-11T23:23:32.318Z,21.63
2018-06-11T23:26:01.029Z,21.47
2018-06-11T23:28:29.578Z,20.63
2018-06-11T23:30:59.018Z,21.33
2018-06-11T23:33:31.079Z,23.50
2018-06-11T23:35:59.578Z,21.50
2018-06-11T23:38:29.009Z,22.33
2018-06-11T23:41:15.014Z,20.70
2018-06-11T23:46:52.800Z,20.13
2018-06-11T23:49:27.685Z,21.17
2018-06-11T23:51:56.247Z,22.17
2018-06-11T23:54:24.797Z,22.00
2018-06-11T23:56:53.420Z,18.77
2018-06-11T23:59:23.027Z,18.57
